South Platte, Nebraska
Current Conditions -  °F | °C
As of 6:00 PM on Friday 19 Dec 2014 (Local Time) from KHSI Reporting Station
Haze Haze  
Wind Chill: 28°   Ceiling: 400
Heat Index: 34°   Visibility: 5mi
Dew Point: 31°   Wind: 7mph
Humidity: 89%   Direction: 180°S
Pressure: 30.06"   Gusts: NA
Location:  40.7545°N, 98.3738°W
Report Text: KHSI 200000Z AUTO 18006KT 5SM BR OVC004 01/M01 A3006 RMK AO2 T00111006
Loading
Personal Weather Stations






























Interactive Weather Map New forecast layout! Learn more

10-Day Weather Forecast

Advertisements
Track Severe Weather on mobile